createdAt,value
2023-02-14T00:01:31.848Z,89.78
2023-02-14T00:03:35.648Z,89.54
2023-02-14T00:05:38.777Z,89.35
2023-02-14T00:07:43.283Z,89.58
2023-02-14T00:09:46.353Z,90.22
2023-02-14T00:11:49.804Z,89.91
2023-02-14T00:14:10.613Z,90.27
2023-02-14T00:16:13.615Z,90.19
2023-02-14T00:18:18.433Z,90.23
2023-02-14T00:20:23.032Z,89.50
2023-02-14T00:22:26.671Z,89.92
2023-02-14T00:24:31.256Z,90.11
2023-02-14T00:26:34.398Z,90.02
2023-02-14T00:28:37.648Z,90.43
2023-02-14T00:30:40.712Z,90.57
2023-02-14T00:32:44.145Z,90.96
2023-02-14T00:34:47.224Z,91.14
2023-02-14T00:37:00.405Z,90.95
2023-02-14T00:39:03.750Z,91.39
2023-02-14T00:41:08.316Z,91.22
2023-02-14T00:43:11.422Z,91.58
2023-02-14T00:45:14.539Z,91.37
2023-02-14T00:47:17.655Z,91.63
2023-02-14T00:49:21.160Z,91.36
2023-02-14T00:51:24.257Z,91.13
2023-02-14T00:53:27.343Z,91.21
2023-02-14T00:55:30.604Z,90.82
2023-02-14T00:57:35.448Z,90.54
2023-02-14T00:59:41.120Z,90.52
2023-02-14T01:01:44.242Z,90.28
2023-02-14T01:03:47.449Z,90.21
2023-02-14T01:05:50.825Z,89.51
2023-02-14T01:07:53.943Z,89.24
2023-02-14T01:09:57.078Z,89.01
2023-02-14T01:12:00.203Z,89.28
2023-02-14T01:14:04.803Z,89.50
2023-02-14T01:16:10.035Z,89.35
2023-02-14T01:18:13.453Z,89.64
2023-02-14T01:20:16.876Z,89.45
2023-02-14T01:22:19.889Z,90.06
2023-02-14T01:24:23.176Z,90.40
2023-02-14T01:26:27.025Z,90.66
2023-02-14T01:28:30.075Z,90.52
2023-02-14T01:30:34.703Z,90.78
2023-02-14T01:32:38.455Z,90.36
2023-02-14T01:34:41.642Z,90.23
2023-02-14T01:36:44.739Z,89.79
2023-02-14T01:38:49.208Z,89.54
2023-02-14T01:40:52.261Z,89.56
2023-02-14T01:42:57.343Z,89.75
2023-02-14T01:45:03.138Z,89.77
2023-02-14T01:47:10.883Z,89.26
2023-02-14T01:49:17.836Z,88.94
2023-02-14T01:51:23.020Z,88.29
2023-02-14T01:53:28.014Z,88.28
2023-02-14T01:55:34.934Z,88.73
2023-02-14T01:57:41.607Z,89.36
2023-02-14T01:59:48.384Z,89.04
2023-02-14T02:01:53.342Z,89.16
2023-02-14T02:04:00.475Z,89.17
2023-02-14T02:06:11.461Z,88.88
2023-02-14T02:08:14.883Z,89.02
2023-02-14T02:10:19.939Z,89.13
2023-02-14T02:12:25.849Z,89.24
2023-02-14T02:14:29.038Z,89.17
2023-02-14T02:16:46.460Z,89.31
2023-02-14T02:19:03.290Z,89.09
2023-02-14T02:21:27.637Z,89.00
2023-02-14T02:23:53.681Z,88.42
2023-02-14T02:26:34.057Z,88.10
2023-02-14T02:29:12.999Z,87.78
2023-02-14T02:31:30.906Z,87.47
2023-02-14T02:34:21.584Z,87.59
2023-02-14T02:36:45.600Z,87.93
2023-02-14T02:39:02.268Z,88.18
2023-02-14T02:41:13.071Z,88.16
2023-02-14T02:43:28.694Z,88.22
2023-02-14T02:46:10.982Z,88.45
2023-02-14T02:48:20.823Z,89.22
2023-02-14T02:50:43.023Z,89.82
2023-02-14T02:53:07.485Z,90.24
2023-02-14T02:55:17.511Z,90.21
2023-02-14T02:57:23.369Z,90.29
2023-02-14T02:59:30.390Z,90.21
2023-02-14T03:01:36.299Z,90.13
2023-02-14T03:03:58.846Z,90.12
2023-02-14T03:06:02.733Z,89.95
2023-02-14T03:08:07.503Z,89.88
2023-02-14T03:10:14.443Z,89.57
2023-02-14T03:12:41.042Z,88.97
2023-02-14T03:14:49.182Z,88.48
2023-02-14T03:17:00.884Z,88.54
2023-02-14T03:19:39.962Z,88.18
2023-02-14T03:21:47.613Z,88.50
2023-02-14T03:23:57.610Z,87.92
2023-02-14T03:26:09.343Z,88.33
2023-02-14T03:28:16.264Z,89.39
2023-02-14T03:30:26.034Z,89.99
2023-02-14T03:32:36.183Z,90.33
2023-02-14T03:34:44.147Z,90.06
2023-02-14T03:36:50.089Z,90.24
2023-02-14T03:38:58.453Z,89.89
2023-02-14T03:41:04.080Z,90.12
2023-02-14T03:43:10.308Z,89.87
2023-02-14T03:45:23.817Z,89.93
2023-02-14T03:47:30.943Z,89.00
2023-02-14T03:49:37.472Z,88.50
2023-02-14T03:51:40.903Z,88.03
2023-02-14T03:53:46.377Z,86.67
2023-02-14T03:55:55.920Z,86.54
2023-02-14T03:58:02.432Z,86.35
2023-02-14T04:00:06.798Z,86.79
2023-02-14T04:02:18.752Z,87.88
2023-02-14T04:04:23.958Z,88.40
2023-02-14T04:06:27.114Z,89.45
2023-02-14T04:08:31.159Z,89.89
2023-02-14T04:10:34.438Z,90.19
2023-02-14T04:12:38.944Z,90.41
2023-02-14T04:14:42.446Z,90.33
2023-02-14T04:17:03.150Z,90.24
2023-02-14T04:19:32.083Z,89.94
2023-02-14T04:21:35.159Z,89.93
2023-02-14T04:23:38.210Z,90.11
2023-02-14T04:25:43.006Z,89.75
2023-02-14T04:27:47.536Z,90.20
2023-02-14T04:29:52.614Z,89.90
2023-02-14T04:31:55.766Z,89.60
2023-02-14T04:33:58.824Z,89.19
2023-02-14T04:36:02.407Z,89.60
2023-02-14T04:38:06.275Z,89.82
2023-02-14T04:40:10.102Z,89.64
2023-02-14T04:42:13.565Z,88.43
2023-02-14T04:44:18.089Z,87.59
2023-02-14T04:46:21.182Z,87.63
2023-02-14T04:48:24.591Z,87.50
2023-02-14T04:50:27.990Z,87.21
2023-02-14T04:52:31.135Z,87.50
2023-02-14T04:54:34.342Z,87.03
2023-02-14T04:56:37.507Z,87.18
2023-02-14T04:58:40.612Z,87.14
2023-02-14T05:00:45.075Z,86.96
2023-02-14T05:02:48.198Z,88.36
2023-02-14T05:04:51.297Z,88.19
2023-02-14T05:06:54.366Z,88.26
2023-02-14T05:08:57.568Z,88.52
2023-02-14T05:11:00.925Z,89.51
2023-02-14T05:13:04.426Z,89.20
2023-02-14T05:15:08.050Z,88.54
2023-02-14T05:17:12.590Z,89.48
2023-02-14T05:19:15.804Z,89.42
2023-02-14T05:21:19.276Z,89.24
2023-02-14T05:23:22.922Z,89.87
2023-02-14T05:25:26.022Z,90.58
2023-02-14T05:27:29.101Z,91.05
2023-02-14T05:29:32.570Z,91.68
2023-02-14T05:31:35.910Z,91.95
2023-02-14T05:33:40.442Z,91.49
2023-02-14T05:35:43.461Z,92.16
2023-02-14T05:37:46.566Z,91.48
2023-02-14T05:39:49.615Z,92.45
2023-02-14T05:41:52.952Z,92.02
2023-02-14T05:43:56.250Z,92.14
2023-02-14T05:45:59.505Z,90.76
2023-02-14T05:48:02.712Z,90.29
2023-02-14T05:50:09.012Z,90.01
2023-02-14T05:52:12.073Z,88.86
2023-02-14T05:54:15.288Z,88.01
2023-02-14T05:56:18.689Z,87.89
2023-02-14T05:58:21.799Z,88.11
2023-02-14T06:00:25.414Z,88.31
2023-02-14T06:02:28.599Z,88.20
2023-02-14T06:04:31.874Z,88.58
2023-02-14T06:06:36.801Z,88.71
2023-02-14T06:08:40.016Z,88.85
2023-02-14T06:10:43.114Z,88.78
2023-02-14T06:12:46.878Z,88.59
2023-02-14T06:14:49.992Z,88.72
2023-02-14T06:16:53.254Z,88.33
2023-02-14T06:18:56.565Z,89.71
2023-02-14T06:20:59.785Z,89.73
2023-02-14T06:23:04.865Z,89.53
2023-02-14T06:25:08.331Z,89.46
2023-02-14T06:27:11.407Z,89.95
2023-02-14T06:29:14.586Z,90.33
2023-02-14T06:31:18.386Z,90.39
2023-02-14T06:33:23.710Z,90.33
2023-02-14T06:35:28.111Z,90.05
2023-02-14T06:37:31.211Z,89.50
2023-02-14T06:39:35.674Z,90.14
2023-02-14T06:41:38.909Z,89.81
2023-02-14T06:43:42.187Z,89.86
2023-02-14T06:45:45.336Z,90.21
2023-02-14T06:47:48.510Z,89.61
2023-02-14T06:49:51.553Z,90.01
2023-02-14T06:51:54.667Z,89.49
2023-02-14T06:53:57.710Z,89.13
2023-02-14T06:56:02.419Z,89.04
2023-02-14T06:58:05.645Z,88.53
2023-02-14T07:00:10.197Z,87.90
2023-02-14T07:02:13.786Z,87.46
2023-02-14T07:04:17.775Z,87.80
2023-02-14T07:06:20.927Z,87.20
2023-02-14T07:08:26.143Z,87.14
2023-02-14T07:10:29.871Z,86.80
2023-02-14T07:12:34.860Z,86.45
2023-02-14T07:14:37.998Z,86.01
2023-02-14T07:16:41.049Z,86.50
2023-02-14T07:18:44.204Z,86.31
2023-02-14T07:20:47.213Z,85.72
2023-02-14T07:22:50.255Z,86.26
2023-02-14T07:24:53.404Z,85.15
2023-02-14T07:26:56.807Z,85.54
2023-02-14T07:29:01.339Z,85.10
2023-02-14T07:31:06.019Z,85.57
2023-02-14T07:33:09.453Z,84.99
2023-02-14T07:35:15.254Z,84.24
2023-02-14T07:37:19.138Z,83.84
2023-02-14T07:39:22.428Z,84.08
2023-02-14T07:41:25.684Z,82.65
2023-02-14T07:43:28.934Z,83.12
2023-02-14T07:45:33.367Z,82.19
2023-02-14T07:47:36.492Z,82.09
2023-02-14T07:49:39.680Z,83.32
2023-02-14T07:51:49.951Z,83.46
2023-02-14T07:53:55.095Z,82.76
2023-02-14T07:55:59.412Z,82.73
2023-02-14T07:58:02.602Z,82.59
2023-02-14T08:00:07.463Z,82.69
2023-02-14T08:02:16.524Z,81.98
2023-02-14T08:04:19.846Z,81.75
2023-02-14T08:06:25.978Z,81.73
2023-02-14T08:08:31.409Z,80.98
2023-02-14T08:10:34.560Z,80.74
2023-02-14T08:12:55.317Z,80.39
2023-02-14T08:15:18.596Z,80.25
2023-02-14T08:17:24.165Z,80.81
2023-02-14T08:19:27.146Z,80.75
2023-02-14T08:21:30.404Z,80.67
2023-02-14T08:23:33.595Z,80.48
2023-02-14T08:25:36.732Z,79.85
2023-02-14T08:27:39.924Z,79.76
2023-02-14T08:29:43.017Z,79.51
2023-02-14T08:31:47.656Z,80.57
2023-02-14T08:33:52.146Z,79.68
2023-02-14T08:35:55.131Z,79.70
2023-02-14T08:37:58.440Z,80.52
2023-02-14T08:40:04.054Z,77.52
2023-02-14T08:42:07.260Z,77.61
2023-02-14T08:44:10.628Z,78.26
2023-02-14T08:46:15.091Z,78.45
2023-02-14T08:48:18.260Z,77.62
2023-02-14T08:50:23.138Z,76.66
2023-02-14T08:52:26.289Z,76.09
2023-02-14T08:54:29.418Z,76.84
2023-02-14T08:56:33.041Z,76.50
2023-02-14T08:58:38.334Z,76.67
2023-02-14T09:00:41.583Z,75.85
2023-02-14T09:02:44.895Z,76.07
2023-02-14T09:04:48.009Z,77.02
2023-02-14T09:06:52.648Z,74.57
2023-02-14T09:08:55.786Z,74.62
2023-02-14T09:10:59.317Z,74.51
2023-02-14T09:13:02.676Z,75.80
2023-02-14T09:15:06.458Z,76.38
2023-02-14T09:17:09.729Z,77.89
2023-02-14T09:19:12.991Z,77.12
2023-02-14T09:21:18.605Z,78.63
2023-02-14T09:23:23.366Z,77.44
2023-02-14T09:25:26.642Z,76.83
2023-02-14T09:27:29.924Z,76.62
2023-02-14T09:29:33.763Z,76.09
2023-02-14T09:31:37.043Z,76.18
2023-02-14T09:33:58.128Z,75.49
2023-02-14T09:36:18.844Z,75.91
2023-02-14T09:38:23.371Z,76.91
2023-02-14T09:40:26.711Z,78.08
2023-02-14T09:42:47.409Z,77.25
2023-02-14T09:44:51.998Z,78.55
2023-02-14T09:47:00.723Z,76.80
2023-02-14T09:49:04.061Z,75.67
2023-02-14T09:51:09.417Z,75.75
2023-02-14T09:53:19.878Z,76.51
2023-02-14T09:55:28.156Z,76.79
2023-02-14T09:57:39.765Z,77.19
2023-02-14T09:59:46.540Z,75.52
2023-02-14T10:01:52.736Z,74.98
2023-02-14T10:04:16.533Z,74.77
2023-02-14T10:06:32.218Z,75.76
2023-02-14T10:08:48.497Z,76.58
2023-02-14T10:11:01.447Z,75.82
2023-02-14T10:13:08.970Z,75.27
2023-02-14T10:15:15.786Z,75.10
2023-02-14T10:17:22.045Z,74.34
2023-02-14T10:19:28.741Z,74.34
2023-02-14T10:21:35.058Z,75.09
2023-02-14T10:23:39.979Z,76.24
2023-02-14T10:25:46.423Z,76.29
2023-02-14T10:27:50.900Z,74.70
2023-02-14T10:29:54.038Z,74.83
2023-02-14T10:31:59.669Z,75.94
2023-02-14T10:34:06.379Z,74.18
2023-02-14T10:36:15.515Z,74.88
2023-02-14T10:38:36.381Z,74.65
2023-02-14T10:40:57.191Z,75.34
2023-02-14T10:43:07.786Z,75.54
2023-02-14T10:45:18.780Z,76.01
2023-02-14T10:47:30.216Z,75.55
2023-02-14T10:49:41.511Z,76.02
2023-02-14T10:51:48.194Z,75.98
2023-02-14T10:53:58.330Z,76.29
2023-02-14T10:56:05.082Z,74.48
2023-02-14T10:58:13.607Z,73.95
2023-02-14T11:00:21.940Z,74.09
2023-02-14T11:02:28.235Z,75.14
2023-02-14T11:04:32.841Z,74.21
2023-02-14T11:06:36.250Z,75.08
2023-02-14T11:08:41.162Z,75.13
2023-02-14T11:10:44.577Z,74.59
2023-02-14T11:12:47.735Z,73.21
2023-02-14T11:15:10.399Z,72.80
2023-02-14T11:17:29.009Z,72.77
2023-02-14T11:19:37.292Z,72.21
2023-02-14T11:21:41.647Z,72.14
2023-02-14T11:23:46.408Z,72.61
2023-02-14T11:25:55.448Z,73.66
2023-02-14T11:28:00.828Z,71.47
2023-02-14T11:30:14.021Z,72.64
2023-02-14T11:32:22.930Z,73.62
2023-02-14T11:34:36.460Z,72.29
2023-02-14T11:36:42.347Z,72.85
2023-02-14T11:38:46.676Z,73.20
2023-02-14T11:40:55.450Z,74.00
2023-02-14T11:43:13.888Z,73.40
2023-02-14T11:45:36.712Z,72.61
2023-02-14T11:47:42.916Z,73.59
2023-02-14T11:49:57.142Z,72.37
2023-02-14T11:52:01.921Z,73.55
2023-02-14T11:54:06.080Z,72.49
2023-02-14T11:56:09.607Z,72.39
2023-02-14T11:58:30.450Z,73.34
2023-02-14T12:00:35.314Z,73.27
2023-02-14T12:02:40.946Z,72.60
2023-02-14T12:04:46.911Z,73.10
2023-02-14T12:06:50.370Z,73.27
2023-02-14T12:08:53.628Z,73.32
2023-02-14T12:11:04.542Z,73.42
2023-02-14T12:13:23.238Z,74.68
2023-02-14T12:15:33.983Z,73.88
2023-02-14T12:17:39.199Z,74.09
2023-02-14T12:19:46.432Z,73.97
2023-02-14T12:21:51.870Z,74.56
2023-02-14T12:24:01.401Z,72.49
2023-02-14T12:26:10.712Z,73.81
2023-02-14T12:28:15.974Z,73.28
2023-02-14T12:30:21.389Z,72.09
2023-02-14T12:32:25.570Z,73.78
2023-02-14T12:34:30.448Z,73.74
2023-02-14T12:36:50.627Z,71.85
2023-02-14T12:39:01.179Z,71.98
2023-02-14T12:41:14.120Z,72.45
2023-02-14T12:43:39.253Z,71.43
2023-02-14T12:46:12.840Z,73.20
2023-02-14T12:48:23.721Z,72.44
2023-02-14T12:50:35.822Z,71.16
2023-02-14T12:53:01.209Z,72.79
2023-02-14T12:55:19.436Z,72.14
2023-02-14T12:57:32.789Z,70.28
2023-02-14T12:59:46.389Z,70.06
2023-02-14T13:02:11.526Z,71.10
2023-02-14T13:04:41.021Z,71.56
2023-02-14T13:06:51.664Z,71.71
2023-02-14T13:09:07.114Z,71.12
2023-02-14T13:11:16.918Z,73.11
2023-02-14T13:13:24.732Z,71.73
2023-02-14T13:15:33.198Z,71.51
2023-02-14T13:17:39.824Z,72.26
2023-02-14T13:19:46.749Z,72.05
2023-02-14T13:21:51.711Z,71.76
2023-02-14T13:23:59.133Z,71.04
2023-02-14T13:26:06.888Z,70.96
2023-02-14T13:28:14.298Z,71.46
2023-02-14T13:30:23.211Z,71.64
2023-02-14T13:32:28.540Z,70.95
2023-02-14T13:34:34.249Z,72.17
2023-02-14T13:36:38.391Z,71.19
2023-02-14T13:38:45.877Z,71.36
2023-02-14T13:40:49.528Z,71.53
2023-02-14T13:42:55.851Z,71.30
2023-02-14T13:44:58.894Z,70.78
2023-02-14T13:47:02.271Z,71.26
2023-02-14T13:49:19.359Z,71.61
2023-02-14T13:51:23.402Z,70.18
2023-02-14T13:53:49.180Z,71.54
2023-02-14T13:55:55.934Z,72.21
2023-02-14T13:58:03.071Z,71.14
2023-02-14T14:00:42.846Z,69.87
2023-02-14T14:02:46.958Z,70.70
2023-02-14T14:04:50.437Z,70.01
2023-02-14T14:07:22.106Z,71.03
2023-02-14T14:09:58.792Z,69.56
2023-02-14T14:12:03.258Z,70.33
2023-02-14T14:14:39.850Z,70.29
2023-02-14T14:16:57.977Z,70.52
2023-02-14T14:19:03.442Z,69.89
2023-02-14T14:21:16.117Z,69.99
2023-02-14T14:23:32.467Z,69.73
2023-02-14T14:25:37.893Z,70.80
2023-02-14T14:27:44.136Z,70.09
2023-02-14T14:29:49.222Z,69.94
2023-02-14T14:31:59.094Z,69.84
2023-02-14T14:34:02.736Z,70.89
2023-02-14T14:36:08.453Z,70.31
2023-02-14T14:38:14.787Z,69.25
2023-02-14T14:40:24.942Z,69.23
2023-02-14T14:42:30.477Z,70.37
2023-02-14T14:44:35.740Z,70.62
2023-02-14T14:46:38.974Z,69.85
2023-02-14T14:48:45.572Z,69.56
2023-02-14T14:50:50.785Z,69.76
2023-02-14T14:52:55.818Z,70.65
2023-02-14T14:54:59.909Z,69.98
2023-02-14T14:57:04.065Z,70.30
2023-02-14T14:59:27.121Z,69.79
2023-02-14T15:01:34.719Z,71.02
2023-02-14T15:03:37.890Z,71.72
2023-02-14T15:05:42.217Z,70.62
2023-02-14T15:07:45.258Z,70.68
2023-02-14T15:09:48.503Z,71.78
2023-02-14T15:12:25.623Z,71.49
2023-02-14T15:14:30.598Z,71.38
2023-02-14T15:16:40.155Z,72.46
2023-02-14T15:18:43.787Z,71.93
2023-02-14T15:20:50.191Z,71.55
2023-02-14T15:22:54.273Z,71.55
2023-02-14T15:24:59.406Z,70.93
2023-02-14T15:27:03.256Z,72.17
2023-02-14T15:29:07.820Z,72.95
2023-02-14T15:31:11.270Z,71.70
2023-02-14T15:33:15.817Z,71.92
2023-02-14T15:35:22.973Z,71.68
2023-02-14T15:37:26.637Z,71.57
2023-02-14T15:39:35.595Z,72.86
2023-02-14T15:41:43.731Z,73.19
2023-02-14T15:43:52.411Z,72.77
2023-02-14T15:45:58.850Z,72.97
2023-02-14T15:48:05.463Z,73.06
2023-02-14T15:50:15.616Z,71.95
2023-02-14T15:52:18.812Z,73.10
2023-02-14T15:54:24.459Z,72.76
2023-02-14T15:56:29.847Z,71.73
2023-02-14T15:58:33.981Z,73.16
2023-02-14T16:00:37.150Z,72.72
2023-02-14T16:02:42.137Z,73.15
2023-02-14T16:04:45.573Z,74.53
2023-02-14T16:07:05.611Z,74.64
2023-02-14T16:09:24.732Z,72.61
2023-02-14T16:11:30.000Z,74.54
2023-02-14T16:13:35.176Z,74.33
2023-02-14T16:15:42.459Z,73.19
2023-02-14T16:17:45.814Z,74.78
2023-02-14T16:19:49.624Z,73.37
2023-02-14T16:21:57.971Z,73.82
2023-02-14T16:24:13.683Z,73.35
2023-02-14T16:26:16.973Z,74.89
2023-02-14T16:28:20.622Z,74.02
2023-02-14T16:30:24.274Z,74.27
2023-02-14T16:32:27.498Z,74.08
2023-02-14T16:34:30.849Z,74.19
2023-02-14T16:36:35.111Z,75.53
2023-02-14T16:38:44.706Z,75.66
2023-02-14T16:40:49.178Z,74.92
2023-02-14T16:42:52.377Z,75.23
2023-02-14T16:44:55.499Z,75.19
2023-02-14T16:46:58.654Z,75.31
2023-02-14T16:49:02.118Z,76.13
2023-02-14T16:51:08.015Z,76.60
2023-02-14T16:53:20.772Z,76.69
2023-02-14T16:55:28.849Z,77.19
2023-02-14T16:57:34.732Z,77.55
2023-02-14T16:59:38.153Z,76.89
2023-02-14T17:01:41.370Z,77.00
2023-02-14T17:03:44.730Z,76.77
2023-02-14T17:05:48.098Z,77.25
2023-02-14T17:07:51.432Z,77.51
2023-02-14T17:09:57.636Z,76.86
2023-02-14T17:12:05.894Z,77.41
2023-02-14T17:14:09.355Z,77.61
2023-02-14T17:16:15.590Z,78.39
2023-02-14T17:18:20.424Z,78.08
2023-02-14T17:20:24.377Z,78.59
2023-02-14T17:22:27.548Z,78.85
2023-02-14T17:24:30.615Z,78.32
2023-02-14T17:26:33.918Z,78.09
2023-02-14T17:28:38.375Z,79.30
2023-02-14T17:30:41.520Z,79.70
2023-02-14T17:32:45.176Z,79.86
2023-02-14T17:34:49.174Z,78.78
2023-02-14T17:36:52.424Z,79.21
2023-02-14T17:38:55.821Z,79.35
2023-02-14T17:40:59.213Z,79.25
2023-02-14T17:43:02.420Z,79.46
2023-02-14T17:45:07.964Z,79.43
2023-02-14T17:47:11.091Z,80.84
2023-02-14T17:49:14.195Z,80.24
2023-02-14T17:51:20.436Z,79.77
2023-02-14T17:53:23.726Z,80.00
2023-02-14T17:55:26.904Z,79.51
2023-02-14T17:57:30.049Z,79.92
2023-02-14T17:59:33.425Z,80.03
2023-02-14T18:01:38.073Z,79.38
2023-02-14T18:03:41.964Z,81.08
2023-02-14T18:05:45.400Z,80.85
2023-02-14T18:07:48.638Z,81.14
2023-02-14T18:09:51.841Z,81.89
2023-02-14T18:11:58.616Z,81.97
2023-02-14T18:14:02.013Z,81.92
2023-02-14T18:16:06.940Z,81.87
2023-02-14T18:18:11.733Z,80.73
2023-02-14T18:20:15.042Z,81.46
2023-02-14T18:22:18.266Z,81.68
2023-02-14T18:24:22.098Z,81.68
2023-02-14T18:26:25.267Z,81.75
2023-02-14T18:28:29.083Z,81.69
2023-02-14T18:30:32.273Z,82.75
2023-02-14T18:32:35.521Z,82.97
2023-02-14T18:34:40.097Z,82.12
2023-02-14T18:36:43.293Z,81.16
2023-02-14T18:38:48.432Z,80.95
2023-02-14T18:40:51.742Z,81.32
2023-02-14T18:42:55.002Z,82.04
2023-02-14T18:44:58.162Z,82.70
2023-02-14T18:47:02.746Z,83.11
2023-02-14T18:49:08.449Z,82.82
2023-02-14T18:51:15.619Z,83.58
2023-02-14T18:53:19.332Z,83.45
2023-02-14T18:55:22.759Z,83.90
2023-02-14T18:57:26.055Z,83.98
2023-02-14T18:59:29.250Z,84.40
2023-02-14T19:01:36.782Z,83.83
2023-02-14T19:03:40.560Z,83.65
2023-02-14T19:05:43.771Z,84.70
2023-02-14T19:07:48.295Z,84.13
2023-02-14T19:09:51.742Z,84.99
2023-02-14T19:12:00.245Z,85.10
2023-02-14T19:14:08.719Z,85.29
2023-02-14T19:16:12.905Z,85.17
2023-02-14T19:18:16.184Z,84.63
2023-02-14T19:20:19.690Z,83.97
2023-02-14T19:22:25.054Z,83.21
2023-02-14T19:24:29.667Z,82.94
2023-02-14T19:26:35.045Z,81.98
2023-02-14T19:28:38.251Z,82.15
2023-02-14T19:30:41.627Z,82.45
2023-02-14T19:32:44.876Z,83.14
2023-02-14T19:34:49.066Z,83.66
2023-02-14T19:36:53.278Z,83.87
2023-02-14T19:38:57.897Z,83.75
2023-02-14T19:41:05.782Z,84.13
2023-02-14T19:43:09.233Z,84.37
2023-02-14T19:45:13.131Z,84.72
2023-02-14T19:47:30.994Z,84.45
2023-02-14T19:49:40.521Z,84.31
2023-02-14T19:51:44.227Z,84.34
2023-02-14T19:53:47.650Z,84.16
2023-02-14T19:55:50.775Z,84.89
2023-02-14T19:57:55.841Z,84.85
2023-02-14T19:59:59.419Z,84.55
2023-02-14T20:02:02.623Z,85.74
2023-02-14T20:04:07.507Z,85.70
2023-02-14T20:06:10.700Z,86.05
2023-02-14T20:08:13.957Z,86.61
2023-02-14T20:10:17.764Z,86.47
2023-02-14T20:12:22.142Z,85.92
2023-02-14T20:14:28.842Z,86.48
2023-02-14T20:16:33.949Z,85.91
2023-02-14T20:18:37.112Z,86.00
2023-02-14T20:21:05.162Z,86.73
2023-02-14T20:23:08.335Z,86.44
2023-02-14T20:25:11.610Z,87.06
2023-02-14T20:27:14.752Z,86.57
2023-02-14T20:29:18.626Z,86.66
2023-02-14T20:31:23.316Z,87.20
2023-02-14T20:33:26.584Z,86.96
2023-02-14T20:35:34.021Z,86.36
2023-02-14T20:37:37.188Z,86.68
2023-02-14T20:39:40.706Z,86.95
2023-02-14T20:41:49.830Z,87.09
2023-02-14T20:43:53.286Z,86.68
2023-02-14T20:45:59.665Z,87.92
2023-02-14T20:48:06.955Z,87.45
2023-02-14T20:50:12.222Z,87.70
2023-02-14T20:52:17.981Z,87.79
2023-02-14T20:54:22.849Z,87.46
2023-02-14T20:56:26.049Z,86.62
2023-02-14T20:58:31.841Z,87.63
2023-02-14T21:00:35.371Z,86.81
2023-02-14T21:02:40.852Z,86.93
2023-02-14T21:04:45.350Z,87.01
2023-02-14T21:06:49.063Z,86.67
2023-02-14T21:08:52.773Z,87.18
2023-02-14T21:10:55.974Z,87.01
2023-02-14T21:12:59.287Z,87.58
2023-02-14T21:15:02.545Z,87.80
2023-02-14T21:17:05.866Z,87.52
2023-02-14T21:19:08.985Z,87.83
2023-02-14T21:21:16.654Z,87.42
2023-02-14T21:23:19.848Z,88.70
2023-02-14T21:25:25.808Z,88.12
2023-02-14T21:27:29.837Z,87.60
2023-02-14T21:29:33.104Z,88.21
2023-02-14T21:31:37.165Z,87.21
2023-02-14T21:33:40.812Z,87.68
2023-02-14T21:35:44.348Z,87.65
2023-02-14T21:37:48.998Z,87.90
2023-02-14T21:39:52.422Z,88.87
2023-02-14T21:41:56.426Z,89.09
2023-02-14T21:44:00.723Z,88.78
2023-02-14T21:46:06.124Z,89.80
2023-02-14T21:48:27.075Z,89.20
2023-02-14T21:50:32.929Z,88.97
2023-02-14T21:52:36.675Z,88.58
2023-02-14T21:54:41.490Z,87.78
2023-02-14T21:56:44.869Z,87.01
2023-02-14T21:58:49.130Z,87.24
2023-02-14T22:00:52.356Z,87.01
2023-02-14T22:02:55.545Z,86.87
2023-02-14T22:04:58.672Z,87.64
2023-02-14T22:07:01.910Z,87.43
2023-02-14T22:09:05.540Z,87.38
2023-02-14T22:11:11.937Z,87.42
2023-02-14T22:13:15.502Z,87.18
2023-02-14T22:15:18.795Z,88.07
2023-02-14T22:17:22.076Z,87.81
2023-02-14T22:19:25.652Z,87.54
2023-02-14T22:21:31.034Z,87.36
2023-02-14T22:23:35.391Z,87.14
2023-02-14T22:25:38.639Z,86.69
2023-02-14T22:27:43.880Z,87.65
2023-02-14T22:29:47.018Z,87.23
2023-02-14T22:31:50.294Z,87.11
2023-02-14T22:33:53.792Z,86.49
2023-02-14T22:35:57.026Z,87.17
2023-02-14T22:38:00.377Z,86.80
2023-02-14T22:40:04.247Z,86.37
2023-02-14T22:42:07.459Z,86.97
2023-02-14T22:44:13.144Z,87.01
2023-02-14T22:46:19.346Z,87.19
2023-02-14T22:48:22.678Z,87.29
2023-02-14T22:50:25.784Z,87.25
2023-02-14T22:52:29.003Z,87.23
2023-02-14T22:54:32.300Z,86.54
2023-02-14T22:56:38.658Z,86.80
2023-02-14T22:58:42.023Z,86.94
2023-02-14T23:00:46.623Z,87.33
2023-02-14T23:02:49.990Z,87.46
2023-02-14T23:04:53.276Z,88.05
2023-02-14T23:06:57.026Z,88.23
2023-02-14T23:09:00.269Z,88.09
2023-02-14T23:11:08.169Z,87.79
2023-02-14T23:13:29.178Z,87.35
2023-02-14T23:15:49.823Z,87.80
2023-02-14T23:18:11.603Z,88.39
2023-02-14T23:20:32.553Z,88.18
2023-02-14T23:22:38.560Z,88.32
2023-02-14T23:24:42.250Z,88.28
2023-02-14T23:26:45.399Z,87.91
2023-02-14T23:28:48.550Z,87.47
2023-02-14T23:30:51.803Z,87.01
2023-02-14T23:32:56.293Z,87.42
2023-02-14T23:34:59.637Z,87.31
2023-02-14T23:37:03.236Z,87.39
2023-02-14T23:39:06.465Z,87.88
2023-02-14T23:41:28.117Z,87.79
2023-02-14T23:43:31.444Z,87.64
2023-02-14T23:45:37.411Z,87.30
2023-02-14T23:47:40.548Z,87.54
2023-02-14T23:49:45.958Z,87.26
2023-02-14T23:51:50.227Z,87.20
2023-02-14T23:53:54.926Z,87.39
2023-02-14T23:56:02.697Z,86.96
2023-02-14T23:58:06.077Z,87.68
